Time;durP1;ratioP1;P1;durP2;ratioP2;P2;SDS_P1;SDS_P2;PMS_P1;PMS_P2;Temp;Humidity;BMP_temperature;BMP_pressure;BME280_temperature;BME280_humidity;BME280_pressure;Samples;Min_cycle;Max_cycle;Signal;HPM_P1;HPM_P2
2022/05/10 00:00:56;;;;;;;;;;;;;;;;;;5085899;28;20243;-73
2022/05/10 00:03:42;;;;;;;;;;;;;;;;;;5088177;28;19912;-74
2022/05/10 00:06:27;;;;;;;;;;;;;;;;;;5075183;28;20286;-73
2022/05/10 00:09:13;;;;;;;;;;;;;;;;;;5089927;28;19977;-72
2022/05/10 00:11:58;;;;;;;;;;;;;;;;;;5091640;28;19912;-73
2022/05/10 00:14:44;;;;;;;;;;;;;;;;;;5087814;28;20371;-73
2022/05/10 00:17:30;;;;;;;;;;;;;;;;;;5091603;28;19912;-73
2022/05/10 00:20:17;;;;;;;;;;;;;;;;;;5087991;28;19924;-63
2022/05/10 00:23:02;;;;;;;;;;;;;;;;;;5077108;28;20366;-63
2022/05/10 00:25:48;;;;;;;;;;;;;;;;;;5083755;28;19920;-64
2022/05/10 00:28:33;;;;;;;;;;;;;;;;;;5081769;28;19913;-63
2022/05/10 00:31:19;;;;;;;;;;;;;;;;;;5080568;28;19912;-63
2022/05/10 00:34:04;;;;;;;;;;;;;;;;;;5089715;28;19912;-69
2022/05/10 00:36:50;;;;;;;;;;;;;;;;;;5074966;28;20319;-72
2022/05/10 00:39:35;;;;;;;;;;;;;;;;;;5076301;28;19928;-73
2022/05/10 00:42:22;;;;;;;;;;;;;;;;;;5083673;28;19916;-73
2022/05/10 00:45:07;;;;;;;;;;;;;;;;;;5085700;28;20424;-74
2022/05/10 00:47:53;;;;;;;;;;;;;;;;;;5090446;28;19912;-72
2022/05/10 00:50:38;;;;;;;;;;;;;;;;;;5086626;28;20283;-73
2022/05/10 00:53:24;;;;;;;;;;;;;;;;;;5081446;28;19912;-65
2022/05/10 00:56:09;;;;;;;;;;;;;;;;;;5090442;28;19919;-72
2022/05/10 00:58:55;;;;;;;;;;;;;;;;;;5089191;28;19974;-74
2022/05/10 01:01:40;;;;;;;;;;;;;;;;;;5065704;28;19951;-73
2022/05/10 01:04:26;;;;;;;;;;;;;;;;;;5082721;28;20332;-73
2022/05/10 01:07:11;;;;;;;;;;;;;;;;;;5078784;28;20050;-73
2022/05/10 01:09:56;;;;;;;;;;;;;;;;;;5082861;28;20281;-72
2022/05/10 01:12:42;;;;;;;;;;;;;;;;;;5085439;28;20095;-66
2022/05/10 01:15:27;;;;;;;;;;;;;;;;;;5088943;28;20416;-65
2022/05/10 01:18:13;;;;;;;;;;;;;;;;;;5088942;28;20413;-65
2022/05/10 01:20:58;;;;;;;;;;;;;;;;;;5089859;28;20347;-66
2022/05/10 01:23:44;;;;;;;;;;;;;;;;;;5084525;28;20378;-66
2022/05/10 01:26:29;;;;;;;;;;;;;;;;;;5074383;28;20411;-64
2022/05/10 01:29:15;;;;;;;;;;;;;;;;;;5090050;28;19908;-72
2022/05/10 01:35:05;;;;;;;;;;;;;;;;;;5080730;28;19971;-72
2022/05/10 01:37:50;;;;;;;;;;;;;;;;;;5076655;28;19908;-72
2022/05/10 01:40:35;;;;;;;;;;;;;;;;;;5086223;28;19920;-72
2022/05/10 01:43:21;;;;;;;;;;;;;;;;;;5062505;28;19978;-72
2022/05/10 01:46:06;;;;;;;;;;;;;;;;;;5086787;28;20270;-71
2022/05/10 01:48:52;;;;;;;;;;;;;;;;;;5074946;28;20489;-68
2022/05/10 01:51:38;;;;;;;;;;;;;;;;;;5089753;28;19935;-71
2022/05/10 01:54:23;;;;;;;;;;;;;;;;;;5087345;28;19919;-71
2022/05/10 01:57:08;;;;;;;;;;;;;;;;;;5089355;28;19965;-71
2022/05/10 01:59:54;;;;;;;;;;;;;;;;;;5088095;28;20028;-70
2022/05/10 02:02:39;;;;;;;;;;;;;;;;;;5087954;28;19913;-71
2022/05/10 02:05:25;;;;;;;;;;;;;;;;;;5086854;28;20367;-71
2022/05/10 02:08:10;;;;;;;;;;;;;;;;;;5089979;28;19959;-69
2022/05/10 02:10:56;;;;;;;;;;;;;;;;;;5087141;28;19919;-63
2022/05/10 02:13:41;;;;;;;;;;;;;;;;;;5082689;28;20011;-62
2022/05/10 02:16:27;;;;;;;;;;;;;;;;;;5087834;28;20378;-62
2022/05/10 02:19:12;;;;;;;;;;;;;;;;;;5090816;28;19927;-62
2022/05/10 02:21:57;;;;;;;;;;;;;;;;;;5089130;28;19981;-62
2022/05/10 02:24:43;;;;;;;;;;;;;;;;;;5089117;28;19998;-69
2022/05/10 02:27:28;;;;;;;;;;;;;;;;;;5089720;28;20294;-63
2022/05/10 02:30:14;;;;;;;;;;;;;;;;;;5085127;28;19965;-62
2022/05/10 02:33:09;;;;;;;;;;;;;;;;;;5084129;28;19924;-63
2022/05/10 02:35:54;;;;;;;;;;;;;;;;;;5082695;28;19962;-63
2022/05/10 02:38:40;;;;;;;;;;;;;;;;;;5093371;28;19920;-63
2022/05/10 02:41:25;;;;;;;;;;;;;;;;;;5089018;28;19919;-63
2022/05/10 02:44:10;;;;;;;;;;;;;;;;;;5091081;28;19970;-73
2022/05/10 02:46:57;;;;;;;;;;;;;;;;;;5082758;28;19934;-62
2022/05/10 02:49:42;;;;;;;;;;;;;;;;;;5085794;28;19919;-61
2022/05/10 02:52:28;;;;;;;;;;;;;;;;;;5086857;28;19919;-61
2022/05/10 02:55:13;;;;;;;;;;;;;;;;;;5091169;28;19919;-60
2022/05/10 02:58:00;;;;;;;;;;;;;;;;;;5084464;28;19928;-61
2022/05/10 03:00:45;;;;;;;;;;;;;;;;;;5093434;28;19927;-61
2022/05/10 03:03:31;;;;;;;;;;;;;;;;;;5079866;28;20405;-63
2022/05/10 03:06:17;;;;;;;;;;;;;;;;;;5089801;28;19916;-74
2022/05/10 03:09:02;;;;;;;;;;;;;;;;;;5078829;28;19923;-73
2022/05/10 03:11:48;;;;;;;;;;;;;;;;;;5091304;28;19920;-74
2022/05/10 03:14:33;;;;;;;;;;;;;;;;;;5088902;28;19912;-73
2022/05/10 03:17:19;;;;;;;;;;;;;;;;;;5086147;28;20021;-76
2022/05/10 03:20:04;;;;;;;;;;;;;;;;;;5082006;28;19920;-70
2022/05/10 03:22:50;;;;;;;;;;;;;;;;;;5091011;28;20025;-64
2022/05/10 03:25:36;;;;;;;;;;;;;;;;;;5092775;28;19924;-66
2022/05/10 03:28:21;;;;;;;;;;;;;;;;;;5083265;28;19920;-66
2022/05/10 03:31:06;;;;;;;;;;;;;;;;;;5083364;28;19920;-65
2022/05/10 03:36:56;;;;;;;;;;;;;;;;;;5087704;28;19920;-65
2022/05/10 03:39:42;;;;;;;;;;;;;;;;;;5082741;28;19920;-60
2022/05/10 03:42:27;;;;;;;;;;;;;;;;;;5076511;28;20332;-72
2022/05/10 03:45:13;;;;;;;;;;;;;;;;;;5081109;28;20387;-73
2022/05/10 03:47:58;;;;;;;;;;;;;;;;;;5081395;28;19966;-73
2022/05/10 03:50:44;;;;;;;;;;;;;;;;;;5078098;28;19912;-74
2022/05/10 03:53:29;;;;;;;;;;;;;;;;;;5075282;28;20390;-73
2022/05/10 03:56:15;;;;;;;;;;;;;;;;;;5084129;28;19962;-73
2022/05/10 03:59:00;;;;;;;;;;;;;;;;;;5088143;28;20329;-63
2022/05/10 04:01:46;;;;;;;;;;;;;;;;;;5079843;28;19912;-73
2022/05/10 04:04:31;;;;;;;;;;;;;;;;;;5064923;28;19916;-72
2022/05/10 04:07:17;;;;;;;;;;;;;;;;;;5076529;28;20355;-72
2022/05/10 04:10:02;;;;;;;;;;;;;;;;;;5086745;28;19913;-72
2022/05/10 04:12:48;;;;;;;;;;;;;;;;;;5091710;28;20268;-73
2022/05/10 04:15:33;;;;;;;;;;;;;;;;;;5064780;28;19912;-65
2022/05/10 04:18:19;;;;;;;;;;;;;;;;;;5089144;28;19966;-74
2022/05/10 04:21:04;;;;;;;;;;;;;;;;;;5087193;28;19919;-72
2022/05/10 04:23:51;;;;;;;;;;;;;;;;;;5086822;28;20337;-74
2022/05/10 04:26:37;;;;;;;;;;;;;;;;;;5082892;28;19919;-74
2022/05/10 04:29:23;;;;;;;;;;;;;;;;;;5091038;28;20469;-72
2022/05/10 04:32:08;;;;;;;;;;;;;;;;;;5080878;28;19918;-73
2022/05/10 04:34:54;;;;;;;;;;;;;;;;;;5080971;28;19916;-72
2022/05/10 04:37:39;;;;;;;;;;;;;;;;;;5069312;28;19912;-62
2022/05/10 04:43:28;;;;;;;;;;;;;;;;;;5093124;28;19918;-62
2022/05/10 04:46:14;;;;;;;;;;;;;;;;;;5088415;28;20336;-64
2022/05/10 04:48:59;;;;;;;;;;;;;;;;;;5086007;28;19912;-63
2022/05/10 04:51:46;;;;;;;;;;;;;;;;;;5079113;28;20338;-68
2022/05/10 04:54:31;;;;;;;;;;;;;;;;;;5091124;28;20268;-60
2022/05/10 04:57:16;;;;;;;;;;;;;;;;;;5088247;28;19921;-61
2022/05/10 05:00:02;;;;;;;;;;;;;;;;;;5086376;28;19920;-61
2022/05/10 05:02:47;;;;;;;;;;;;;;;;;;5081543;28;19913;-61
2022/05/10 05:05:33;;;;;;;;;;;;;;;;;;5085900;28;20041;-61
2022/05/10 05:08:18;;;;;;;;;;;;;;;;;;5078255;28;20339;-61
2022/05/10 05:11:04;;;;;;;;;;;;;;;;;;5089151;28;19912;-69
2022/05/10 05:13:49;;;;;;;;;;;;;;;;;;5081551;28;19959;-66
2022/05/10 05:16:35;;;;;;;;;;;;;;;;;;5082462;28;19919;-64
2022/05/10 05:19:20;;;;;;;;;;;;;;;;;;5088962;28;19920;-67
2022/05/10 05:22:06;;;;;;;;;;;;;;;;;;5085708;28;19965;-66
2022/05/10 05:24:51;;;;;;;;;;;;;;;;;;5081974;28;20336;-66
2022/05/10 05:27:37;;;;;;;;;;;;;;;;;;5094611;28;19912;-67
2022/05/10 05:30:22;;;;;;;;;;;;;;;;;;5096755;28;20003;-69
2022/05/10 05:33:07;;;;;;;;;;;;;;;;;;5097927;28;19958;-68
2022/05/10 05:35:53;;;;;;;;;;;;;;;;;;5083151;28;19912;-69
2022/05/10 05:38:38;;;;;;;;;;;;;;;;;;5087309;28;20438;-69
2022/05/10 05:41:24;;;;;;;;;;;;;;;;;;5085416;28;19938;-68
2022/05/10 05:44:09;;;;;;;;;;;;;;;;;;5084691;28;19927;-69
2022/05/10 05:46:57;;;;;;;;;;;;;;;;;;5078034;28;19916;-61
2022/05/10 05:49:43;;;;;;;;;;;;;;;;;;5083525;28;19913;-69
2022/05/10 05:52:28;;;;;;;;;;;;;;;;;;5087853;28;20015;-66
2022/05/10 05:55:14;;;;;;;;;;;;;;;;;;5089024;28;20062;-66
2022/05/10 05:57:59;;;;;;;;;;;;;;;;;;5093743;28;19941;-66
2022/05/10 06:00:45;;;;;;;;;;;;;;;;;;5088488;28;19920;-66
2022/05/10 06:03:30;;;;;;;;;;;;;;;;;;5090350;28;19999;-64
2022/05/10 06:06:16;;;;;;;;;;;;;;;;;;5092849;28;19912;-69
2022/05/10 06:09:01;;;;;;;;;;;;;;;;;;5095183;28;19965;-68
2022/05/10 06:11:47;;;;;;;;;;;;;;;;;;5095542;28;19915;-68
2022/05/10 06:14:32;;;;;;;;;;;;;;;;;;5095562;28;19908;-67
2022/05/10 06:17:18;;;;;;;;;;;;;;;;;;5079755;28;19908;-67
2022/05/10 06:20:04;;;;;;;;;;;;;;;;;;5094811;28;19947;-67
2022/05/10 06:22:49;;;;;;;;;;;;;;;;;;5095348;28;19912;-67
2022/05/10 06:25:36;;;;;;;;;;;;;;;;;;5095477;28;20395;-68
2022/05/10 06:28:21;;;;;;;;;;;;;;;;;;5095845;28;19965;-63
2022/05/10 06:31:07;;;;;;;;;;;;;;;;;;5095156;28;19916;-66
2022/05/10 06:33:52;;;;;;;;;;;;;;;;;;5095251;28;19957;-61
2022/05/10 06:36:38;;;;;;;;;;;;;;;;;;5095263;28;20259;-63
2022/05/10 06:39:23;;;;;;;;;;;;;;;;;;5094985;28;20279;-64
2022/05/10 06:42:09;;;;;;;;;;;;;;;;;;5095256;28;19916;-78
2022/05/10 06:44:54;;;;;;;;;;;;;;;;;;5095246;28;19981;-78
2022/05/10 06:47:39;;;;;;;;;;;;;;;;;;5079033;28;19915;-69
2022/05/10 06:50:25;;;;;;;;;;;;;;;;;;5094944;28;19962;-69
2022/05/10 06:53:10;;;;;;;;;;;;;;;;;;5094756;28;20006;-69
2022/05/10 06:55:56;;;;;;;;;;;;;;;;;;5074789;28;19912;-69
2022/05/10 06:58:41;;;;;;;;;;;;;;;;;;5074104;28;20363;-69
2022/05/10 07:01:27;;;;;;;;;;;;;;;;;;5074412;28;19915;-65
2022/05/10 07:04:12;;;;;;;;;;;;;;;;;;5074482;28;19916;-65
2022/05/10 07:06:58;;;;;;;;;;;;;;;;;;5074499;28;19934;-66
2022/05/10 07:09:44;;;;;;;;;;;;;;;;;;5074118;28;20275;-67
2022/05/10 07:12:29;;;;;;;;;;;;;;;;;;5075482;28;19908;-66
2022/05/10 07:15:15;;;;;;;;;;;;;;;;;;5075313;28;20379;-65
2022/05/10 07:18:01;;;;;;;;;;;;;;;;;;5081639;28;20073;-66
2022/05/10 07:20:46;;;;;;;;;;;;;;;;;;5094396;28;19922;-64
2022/05/10 07:23:32;;;;;;;;;;;;;;;;;;5093370;28;20394;-68
2022/05/10 07:26:17;;;;;;;;;;;;;;;;;;5094003;28;19912;-66
2022/05/10 07:29:03;;;;;;;;;;;;;;;;;;5094271;28;19915;-66
2022/05/10 07:31:48;;;;;;;;;;;;;;;;;;5093072;28;19953;-68
2022/05/10 07:34:34;;;;;;;;;;;;;;;;;;5094148;28;19908;-66
2022/05/10 07:37:19;;;;;;;;;;;;;;;;;;5093993;28;20267;-65
2022/05/10 07:40:05;;;;;;;;;;;;;;;;;;5093924;28;20409;-64
2022/05/10 07:42:50;;;;;;;;;;;;;;;;;;5093972;28;19961;-67
2022/05/10 07:45:36;;;;;;;;;;;;;;;;;;5093832;28;19920;-67
2022/05/10 07:48:22;;;;;;;;;;;;;;;;;;5094205;28;19982;-65
2022/05/10 07:51:08;;;;;;;;;;;;;;;;;;5093932;28;20424;-66
2022/05/10 07:53:53;;;;;;;;;;;;;;;;;;5092963;28;19908;-66
2022/05/10 07:56:40;;;;;;;;;;;;;;;;;;5094799;28;19919;-68
2022/05/10 07:59:28;;;;;;;;;;;;;;;;;;5094027;28;19923;-67
2022/05/10 08:02:13;;;;;;;;;;;;;;;;;;5094197;28;19916;-67
2022/05/10 08:04:59;;;;;;;;;;;;;;;;;;5095037;28;19915;-67
2022/05/10 08:07:44;;;;;;;;;;;;;;;;;;5094108;28;19970;-67
2022/05/10 08:10:30;;;;;;;;;;;;;;;;;;5092632;28;19908;-65
2022/05/10 08:13:15;;;;;;;;;;;;;;;;;;5093298;28;20279;-67
2022/05/10 08:16:01;;;;;;;;;;;;;;;;;;5093432;28;20006;-66
2022/05/10 08:18:48;;;;;;;;;;;;;;;;;;5093120;28;19919;-79
2022/05/10 08:21:34;;;;;;;;;;;;;;;;;;5093376;28;20442;-80
2022/05/10 08:24:19;;;;;;;;;;;;;;;;;;5092218;28;20295;-80
2022/05/10 08:27:05;;;;;;;;;;;;;;;;;;5092559;28;19995;-81
2022/05/10 08:29:50;;;;;;;;;;;;;;;;;;5093180;28;19908;-79
2022/05/10 08:32:36;;;;;;;;;;;;;;;;;;5093072;28;20298;-81
2022/05/10 08:35:21;;;;;;;;;;;;;;;;;;5092161;28;20002;-70
2022/05/10 08:38:06;;;;;;;;;;;;;;;;;;5092828;28;19953;-66
2022/05/10 08:40:52;;;;;;;;;;;;;;;;;;5092997;28;19966;-66
2022/05/10 08:43:37;;;;;;;;;;;;;;;;;;5092666;28;19908;-66
2022/05/10 08:46:23;;;;;;;;;;;;;;;;;;5092850;28;19911;-66
2022/05/10 08:49:08;;;;;;;;;;;;;;;;;;5092772;28;20259;-65
2022/05/10 08:51:54;;;;;;;;;;;;;;;;;;5093098;28;19916;-66
2022/05/10 08:54:40;;;;;;;;;;;;;;;;;;5083472;28;19912;-62
2022/05/10 08:57:26;;;;;;;;;;;;;;;;;;5072227;28;19916;-61
2022/05/10 09:00:11;;;;;;;;;;;;;;;;;;5072467;28;19966;-61
2022/05/10 09:02:56;;;;;;;;;;;;;;;;;;5073032;28;19944;-61
2022/05/10 09:05:42;;;;;;;;;;;;;;;;;;5079909;28;19912;-62
2022/05/10 09:08:27;;;;;;;;;;;;;;;;;;5084693;28;19912;-62
2022/05/10 09:11:13;;;;;;;;;;;;;;;;;;5077064;28;19908;-69
2022/05/10 09:13:58;;;;;;;;;;;;;;;;;;5092538;28;19970;-66
2022/05/10 09:16:44;;;;;;;;;;;;;;;;;;5092490;28;19915;-67
2022/05/10 09:19:29;;;;;;;;;;;;;;;;;;5092170;28;19916;-66
2022/05/10 09:22:15;;;;;;;;;;;;;;;;;;5097671;28;20351;-66
2022/05/10 09:25:00;;;;;;;;;;;;;;;;;;5099988;28;19927;-67
2022/05/10 09:27:46;;;;;;;;;;;;;;;;;;5096526;28;19920;-72
2022/05/10 09:30:31;;;;;;;;;;;;;;;;;;5100070;28;19912;-72
2022/05/10 09:36:21;;;;;;;;;;;;;;;;;;5098433;28;20014;-66
2022/05/10 09:39:06;;;;;;;;;;;;;;;;;;5099849;28;19973;-64
2022/05/10 09:41:51;;;;;;;;;;;;;;;;;;5098806;28;20363;-65
2022/05/10 09:44:37;;;;;;;;;;;;;;;;;;5098855;28;19916;-66
2022/05/10 09:47:22;;;;;;;;;;;;;;;;;;5099009;28;19955;-75
2022/05/10 09:50:08;;;;;;;;;;;;;;;;;;5098937;28;19909;-64
2022/05/10 09:52:54;;;;;;;;;;;;;;;;;;5098879;28;19934;-63
2022/05/10 09:55:40;;;;;;;;;;;;;;;;;;5098069;28;19908;-63
2022/05/10 09:58:25;;;;;;;;;;;;;;;;;;5079181;28;19927;-63
2022/05/10 10:01:11;;;;;;;;;;;;;;;;;;5080195;28;19928;-63
2022/05/10 10:03:57;;;;;;;;;;;;;;;;;;5078868;28;20391;-63
2022/05/10 10:06:42;;;;;;;;;;;;;;;;;;5079031;28;19912;-75
2022/05/10 10:09:28;;;;;;;;;;;;;;;;;;5078749;28;19908;-76
2022/05/10 10:12:13;;;;;;;;;;;;;;;;;;5079831;28;19908;-76
2022/05/10 10:14:59;;;;;;;;;;;;;;;;;;5079748;28;19944;-76
2022/05/10 10:17:44;;;;;;;;;;;;;;;;;;5083758;28;19958;-75
2022/05/10 10:20:30;;;;;;;;;;;;;;;;;;5098621;28;19916;-76
2022/05/10 10:23:15;;;;;;;;;;;;;;;;;;5097954;28;19915;-73
2022/05/10 10:26:01;;;;;;;;;;;;;;;;;;5098014;28;20107;-64
2022/05/10 10:28:46;;;;;;;;;;;;;;;;;;5098719;28;19964;-63
2022/05/10 10:31:32;;;;;;;;;;;;;;;;;;5098731;28;19966;-62
2022/05/10 10:34:18;;;;;;;;;;;;;;;;;;5094622;28;19914;-63
2022/05/10 10:37:04;;;;;;;;;;;;;;;;;;5094167;28;19908;-62
2022/05/10 10:39:49;;;;;;;;;;;;;;;;;;5094840;28;20389;-63
2022/05/10 10:42:35;;;;;;;;;;;;;;;;;;5095541;28;19915;-63
2022/05/10 10:45:20;;;;;;;;;;;;;;;;;;5095105;28;19955;-75
2022/05/10 10:48:06;;;;;;;;;;;;;;;;;;5095099;28;20477;-75
2022/05/10 10:50:51;;;;;;;;;;;;;;;;;;5094914;28;19951;-75
2022/05/10 10:53:38;;;;;;;;;;;;;;;;;;5094583;28;19954;-76
2022/05/10 10:56:24;;;;;;;;;;;;;;;;;;5094327;28;19912;-74
2022/05/10 10:59:09;;;;;;;;;;;;;;;;;;5096023;28;19916;-75
2022/05/10 11:01:56;;;;;;;;;;;;;;;;;;5095966;28;20420;-68
2022/05/10 11:04:41;;;;;;;;;;;;;;;;;;5080205;28;19912;-67
2022/05/10 11:07:26;;;;;;;;;;;;;;;;;;5095705;28;19908;-67
2022/05/10 11:10:12;;;;;;;;;;;;;;;;;;5094907;28;19914;-66
2022/05/10 11:12:57;;;;;;;;;;;;;;;;;;5094628;28;19996;-66
2022/05/10 11:15:43;;;;;;;;;;;;;;;;;;5094606;28;20390;-67
2022/05/10 11:18:28;;;;;;;;;;;;;;;;;;5078739;28;19915;-69
2022/05/10 11:21:14;;;;;;;;;;;;;;;;;;5094583;28;20007;-66
2022/05/10 11:23:59;;;;;;;;;;;;;;;;;;5079437;28;19920;-65
2022/05/10 11:26:45;;;;;;;;;;;;;;;;;;5093820;28;19919;-66
2022/05/10 11:29:30;;;;;;;;;;;;;;;;;;5093120;28;19958;-66
2022/05/10 11:32:15;;;;;;;;;;;;;;;;;;5094233;28;19909;-66
2022/05/10 11:35:01;;;;;;;;;;;;;;;;;;5094488;28;20336;-65
2022/05/10 11:37:47;;;;;;;;;;;;;;;;;;5093986;28;19908;-63
2022/05/10 11:40:32;;;;;;;;;;;;;;;;;;5093768;28;19916;-76
2022/05/10 11:43:18;;;;;;;;;;;;;;;;;;5094057;28;20374;-77
2022/05/10 11:46:04;;;;;;;;;;;;;;;;;;5092906;28;19915;-76
2022/05/10 11:48:49;;;;;;;;;;;;;;;;;;5093853;28;20363;-76
2022/05/10 11:51:44;;;;;;;;;;;;;;;;;;5093880;28;20329;-76
2022/05/10 11:54:29;;;;;;;;;;;;;;;;;;5093602;28;20352;-76
2022/05/10 11:57:15;;;;;;;;;;;;;;;;;;5093285;28;20363;-71
2022/05/10 12:00:00;;;;;;;;;;;;;;;;;;5094882;28;19920;-72
2022/05/10 12:02:46;;;;;;;;;;;;;;;;;;5094642;28;19908;-71
2022/05/10 12:05:32;;;;;;;;;;;;;;;;;;5093957;28;19908;-72
2022/05/10 12:08:19;;;;;;;;;;;;;;;;;;5094654;28;19951;-76
2022/05/10 12:11:04;;;;;;;;;;;;;;;;;;5077818;28;19908;-72
2022/05/10 12:23:02;;;;;;;;;;;;;;;;;;5094065;28;19908;-65
2022/05/10 12:25:48;;;;;;;;;;;;;;;;;;5087385;28;19967;-65
2022/05/10 12:28:34;;;;;;;;;;;;;;;;;;5073177;28;19912;-68
2022/05/10 12:31:19;;;;;;;;;;;;;;;;;;5072753;28;19959;-67
2022/05/10 12:34:08;;;;;;;;;;;;;;;;;;5073916;28;19908;-68
2022/05/10 12:36:53;;;;;;;;;;;;;;;;;;5072801;28;19953;-76
2022/05/10 12:39:39;;;;;;;;;;;;;;;;;;5058657;28;20418;-76
2022/05/10 12:42:24;;;;;;;;;;;;;;;;;;5072572;28;19909;-75
2022/05/10 12:45:11;;;;;;;;;;;;;;;;;;5057430;28;19962;-77
2022/05/10 12:47:56;;;;;;;;;;;;;;;;;;5072591;28;19909;-76
2022/05/10 12:50:42;;;;;;;;;;;;;;;;;;5072289;28;19915;-75
2022/05/10 12:53:28;;;;;;;;;;;;;;;;;;5072367;28;19908;-70
2022/05/10 12:56:13;;;;;;;;;;;;;;;;;;5079121;28;19912;-70
2022/05/10 12:58:59;;;;;;;;;;;;;;;;;;5092947;28;20272;-69
2022/05/10 13:01:44;;;;;;;;;;;;;;;;;;5093762;28;19995;-70
2022/05/10 13:04:30;;;;;;;;;;;;;;;;;;5093559;28;19951;-73
2022/05/10 13:07:15;;;;;;;;;;;;;;;;;;5093747;28;19908;-75
2022/05/10 13:10:01;;;;;;;;;;;;;;;;;;5092457;28;19912;-68
2022/05/10 13:12:49;;;;;;;;;;;;;;;;;;5092520;28;19908;-79
2022/05/10 13:15:34;;;;;;;;;;;;;;;;;;5076841;28;19915;-79
2022/05/10 13:18:20;;;;;;;;;;;;;;;;;;5092311;28;19908;-78
2022/05/10 13:21:05;;;;;;;;;;;;;;;;;;5092690;28;19916;-79
2022/05/10 13:23:51;;;;;;;;;;;;;;;;;;5092087;28;20334;-78
2022/05/10 13:26:36;;;;;;;;;;;;;;;;;;5091683;28;19964;-76
2022/05/10 13:29:22;;;;;;;;;;;;;;;;;;5092444;28;19978;-71
2022/05/10 13:32:08;;;;;;;;;;;;;;;;;;5091217;28;20006;-71
2022/05/10 13:34:53;;;;;;;;;;;;;;;;;;5092179;28;20270;-69
2022/05/10 13:37:38;;;;;;;;;;;;;;;;;;5092124;28;19916;-69
2022/05/10 13:40:24;;;;;;;;;;;;;;;;;;5091884;28;19916;-65
2022/05/10 13:43:09;;;;;;;;;;;;;;;;;;5092124;28;19908;-63
2022/05/10 13:45:55;;;;;;;;;;;;;;;;;;5091222;28;19908;-73
2022/05/10 13:48:40;;;;;;;;;;;;;;;;;;5091816;28;19908;-69
2022/05/10 13:51:27;;;;;;;;;;;;;;;;;;5092167;28;20006;-69
2022/05/10 13:54:12;;;;;;;;;;;;;;;;;;5091692;28;19915;-65
2022/05/10 13:56:59;;;;;;;;;;;;;;;;;;5071727;28;20001;-65
2022/05/10 13:59:46;;;;;;;;;;;;;;;;;;5072779;28;19921;-64
2022/05/10 14:02:32;;;;;;;;;;;;;;;;;;5071579;28;19912;-65
2022/05/10 14:05:18;;;;;;;;;;;;;;;;;;5073000;28;20359;-67
2022/05/10 14:08:04;;;;;;;;;;;;;;;;;;5081105;28;19995;-68
2022/05/10 14:10:49;;;;;;;;;;;;;;;;;;5095508;28;20003;-67
2022/05/10 14:13:35;;;;;;;;;;;;;;;;;;5095738;28;19908;-67
2022/05/10 14:16:20;;;;;;;;;;;;;;;;;;5095563;28;19908;-64
2022/05/10 14:19:08;;;;;;;;;;;;;;;;;;5095501;28;20030;-64
2022/05/10 14:21:53;;;;;;;;;;;;;;;;;;5096328;28;19912;-65
2022/05/10 14:24:39;;;;;;;;;;;;;;;;;;5094448;28;19924;-67
2022/05/10 14:27:24;;;;;;;;;;;;;;;;;;5094967;28;19912;-61
2022/05/10 14:30:10;;;;;;;;;;;;;;;;;;5094469;28;20356;-61
2022/05/10 14:32:55;;;;;;;;;;;;;;;;;;5095298;28;19908;-61
2022/05/10 14:35:41;;;;;;;;;;;;;;;;;;5095158;28;19916;-62
2022/05/10 14:38:26;;;;;;;;;;;;;;;;;;5095081;28;19908;-62
2022/05/10 14:41:12;;;;;;;;;;;;;;;;;;5094312;28;19916;-75
2022/05/10 14:43:57;;;;;;;;;;;;;;;;;;5095208;28;19909;-75
2022/05/10 14:46:43;;;;;;;;;;;;;;;;;;5095112;28;19908;-75
2022/05/10 14:49:28;;;;;;;;;;;;;;;;;;5079441;28;19912;-75
2022/05/10 14:52:14;;;;;;;;;;;;;;;;;;5079544;28;19908;-74
2022/05/10 14:54:59;;;;;;;;;;;;;;;;;;5094099;28;19908;-74
2022/05/10 14:57:44;;;;;;;;;;;;;;;;;;5096006;28;19919;-75
2022/05/10 15:00:37;;;;;;;;;;;;;;;;;;5095860;28;20278;-74
2022/05/10 15:03:24;;;;;;;;;;;;;;;;;;5080384;28;19965;-75
2022/05/10 15:06:11;;;;;;;;;;;;;;;;;;5095353;28;19908;-76
2022/05/10 15:08:56;;;;;;;;;;;;;;;;;;5095111;28;19916;-75
2022/05/10 15:14:46;;;;;;;;;;;;;;;;;;5095118;28;19915;-76
2022/05/10 15:18:58;;;;;;;;;;;;;;;;;;5094488;28;19951;-75
2022/05/10 15:20:37;;;;;;;;;;;;;;;;;;5094767;28;19960;-72
2022/05/10 15:23:22;;;;;;;;;;;;;;;;;;5079716;28;19924;-74
2022/05/10 15:26:07;;;;;;;;;;;;;;;;;;5074036;28;20362;-73
2022/05/10 15:28:53;;;;;;;;;;;;;;;;;;5074559;28;19908;-73
2022/05/10 15:31:38;;;;;;;;;;;;;;;;;;5074498;28;19908;-73
2022/05/10 15:37:29;;;;;;;;;;;;;;;;;;5092041;28;19912;-66
2022/05/10 15:40:15;;;;;;;;;;;;;;;;;;5093896;28;19955;-63
2022/05/10 15:43:01;;;;;;;;;;;;;;;;;;5087434;28;19933;-63
2022/05/10 15:45:46;;;;;;;;;;;;;;;;;;5092794;28;19919;-64
2022/05/10 15:48:32;;;;;;;;;;;;;;;;;;5091987;28;19912;-65
2022/05/10 15:51:17;;;;;;;;;;;;;;;;;;5079893;28;20002;-63
2022/05/10 15:54:03;;;;;;;;;;;;;;;;;;5077881;28;19916;-63
2022/05/10 15:56:48;;;;;;;;;;;;;;;;;;5081079;28;19916;-73
2022/05/10 15:59:34;;;;;;;;;;;;;;;;;;5076222;28;19931;-72
2022/05/10 16:02:20;;;;;;;;;;;;;;;;;;5090312;28;19932;-73
2022/05/10 16:05:06;;;;;;;;;;;;;;;;;;5086594;28;19912;-74
2022/05/10 16:07:51;;;;;;;;;;;;;;;;;;5083021;28;20010;-72
2022/05/10 16:10:37;;;;;;;;;;;;;;;;;;5080676;28;19943;-71
2022/05/10 16:13:22;;;;;;;;;;;;;;;;;;5079919;28;20409;-72
2022/05/10 16:16:08;;;;;;;;;;;;;;;;;;5078031;28;19913;-71
2022/05/10 16:18:51;;;;;;;;;;;;;;;;;;5069401;28;19931;-73
2022/05/10 16:21:36;;;;;;;;;;;;;;;;;;5067934;28;19936;-74
2022/05/10 16:24:22;;;;;;;;;;;;;;;;;;5066496;28;19913;-73
2022/05/10 16:30:12;;;;;;;;;;;;;;;;;;5063694;28;20387;-73
2022/05/10 16:32:57;;;;;;;;;;;;;;;;;;5067218;28;19913;-71
2022/05/10 16:35:43;;;;;;;;;;;;;;;;;;5055196;28;19917;-69
2022/05/10 16:38:28;;;;;;;;;;;;;;;;;;5076328;28;19967;-68
2022/05/10 16:41:14;;;;;;;;;;;;;;;;;;5077471;28;19931;-68
2022/05/10 16:44:00;;;;;;;;;;;;;;;;;;5085042;28;19915;-69
2022/05/10 16:46:45;;;;;;;;;;;;;;;;;;5100830;28;19955;-68
2022/05/10 16:49:31;;;;;;;;;;;;;;;;;;5103029;28;20363;-70
2022/05/10 16:52:17;;;;;;;;;;;;;;;;;;5104222;28;19912;-69
2022/05/10 16:55:02;;;;;;;;;;;;;;;;;;5107325;28;20030;-72
2022/05/10 16:57:48;;;;;;;;;;;;;;;;;;5094015;28;19915;-71
2022/05/10 17:00:34;;;;;;;;;;;;;;;;;;5109277;28;19919;-72
2022/05/10 17:03:19;;;;;;;;;;;;;;;;;;5110557;28;19919;-74
2022/05/10 17:06:04;;;;;;;;;;;;;;;;;;5092072;28;19963;-73
2022/05/10 17:08:50;;;;;;;;;;;;;;;;;;5106563;28;19918;-68
2022/05/10 17:11:36;;;;;;;;;;;;;;;;;;5106332;28;19912;-67
2022/05/10 17:14:21;;;;;;;;;;;;;;;;;;5111773;28;19912;-67
2022/05/10 17:17:06;;;;;;;;;;;;;;;;;;5093236;28;19943;-65
2022/05/10 17:19:52;;;;;;;;;;;;;;;;;;5111187;28;20434;-65
2022/05/10 17:22:37;;;;;;;;;;;;;;;;;;5111235;28;19912;-65
2022/05/10 17:25:29;;;;;;;;;;;;;;;;;;5092749;28;19919;-68
2022/05/10 17:31:00;;;;;;;;;;;;;;;;;;5092139;28;19920;-72
2022/05/10 17:33:45;;;;;;;;;;;;;;;;;;5093853;28;19912;-71
2022/05/10 17:36:31;;;;;;;;;;;;;;;;;;5110619;28;20290;-71
2022/05/10 17:39:16;;;;;;;;;;;;;;;;;;5112347;28;19926;-70
2022/05/10 17:42:02;;;;;;;;;;;;;;;;;;5108070;28;19957;-70
2022/05/10 17:44:47;;;;;;;;;;;;;;;;;;5112185;27;20380;-71
2022/05/10 17:47:33;;;;;;;;;;;;;;;;;;5101552;27;19912;-68
2022/05/10 17:50:18;;;;;;;;;;;;;;;;;;5114741;28;19919;-66
2022/05/10 17:53:04;;;;;;;;;;;;;;;;;;5102261;28;20391;-67
2022/05/10 17:55:49;;;;;;;;;;;;;;;;;;5115766;27;19934;-66
2022/05/10 17:58:35;;;;;;;;;;;;;;;;;;5097704;28;19947;-67
2022/05/10 18:01:20;;;;;;;;;;;;;;;;;;5101238;28;19920;-67
2022/05/10 18:04:06;;;;;;;;;;;;;;;;;;5110743;28;20357;-70
2022/05/10 18:06:51;;;;;;;;;;;;;;;;;;5109386;28;19912;-68
2022/05/10 18:09:37;;;;;;;;;;;;;;;;;;5098487;28;19919;-71
2022/05/10 18:12:22;;;;;;;;;;;;;;;;;;5112407;28;19972;-71
2022/05/10 18:15:08;;;;;;;;;;;;;;;;;;5095438;28;19908;-73
2022/05/10 18:17:53;;;;;;;;;;;;;;;;;;5111096;28;20358;-72
2022/05/10 18:20:39;;;;;;;;;;;;;;;;;;5100831;28;20370;-74
2022/05/10 18:23:25;;;;;;;;;;;;;;;;;;5096282;28;19919;-75
2022/05/10 18:26:10;;;;;;;;;;;;;;;;;;5097843;28;20426;-70
2022/05/10 18:28:56;;;;;;;;;;;;;;;;;;5098873;28;19958;-70
2022/05/10 18:31:41;;;;;;;;;;;;;;;;;;5107986;27;19912;-74
2022/05/10 18:34:28;;;;;;;;;;;;;;;;;;5092039;28;19919;-73
2022/05/10 18:37:13;;;;;;;;;;;;;;;;;;5097751;28;19908;-73
2022/05/10 18:39:59;;;;;;;;;;;;;;;;;;5097278;28;19992;-75
2022/05/10 18:42:44;;;;;;;;;;;;;;;;;;5106839;28;19969;-71
2022/05/10 18:45:30;;;;;;;;;;;;;;;;;;5113224;28;20274;-69
2022/05/10 18:48:15;;;;;;;;;;;;;;;;;;5113540;27;19946;-67
2022/05/10 18:51:00;;;;;;;;;;;;;;;;;;5098056;28;19919;-69
2022/05/10 18:53:46;;;;;;;;;;;;;;;;;;5098621;28;19912;-70
2022/05/10 18:56:31;;;;;;;;;;;;;;;;;;5111233;27;19998;-69
2022/05/10 18:59:17;;;;;;;;;;;;;;;;;;5111438;27;19923;-69
2022/05/10 19:02:02;;;;;;;;;;;;;;;;;;5114667;27;19945;-85
2022/05/10 19:04:48;;;;;;;;;;;;;;;;;;5111470;27;20324;-69
2022/05/10 19:07:33;;;;;;;;;;;;;;;;;;5110973;27;19912;-69
2022/05/10 19:10:19;;;;;;;;;;;;;;;;;;5112370;27;19926;-69
2022/05/10 19:13:04;;;;;;;;;;;;;;;;;;5116804;27;19961;-68
2022/05/10 19:15:50;;;;;;;;;;;;;;;;;;5093659;27;20427;-69
2022/05/10 19:18:35;;;;;;;;;;;;;;;;;;5114228;28;19942;-67
2022/05/10 19:21:21;;;;;;;;;;;;;;;;;;5094739;28;19920;-73
2022/05/10 19:24:06;;;;;;;;;;;;;;;;;;5099255;28;19915;-68